Time;durP1;ratioP1;P1;durP2;ratioP2;P2;SDS_P1;SDS_P2;PMS_P1;PMS_P2;Temp;Humidity;BMP_temperature;BMP_pressure;BME280_temperature;BME280_humidity;BME280_pressure;Samples;Min_cycle;Max_cycle;Signal;HPM_P1;HPM_P2
2023/05/06 00:00:58;;;;;;;1.80;1.70;;;15.20;46.30;;;;;;5054343;28;20438;-79
2023/05/06 00:03:24;;;;;;;1.80;1.70;;;15.10;46.30;;;;;;5053986;28;20060;-80
2023/05/06 00:05:50;;;;;;;1.77;1.67;;;15.20;46.60;;;;;;5054036;28;20106;-79
2023/05/06 00:08:16;;;;;;;1.88;1.77;;;15.10;46.50;;;;;;5054164;28;20021;-78
2023/05/06 00:10:41;;;;;;;1.90;1.70;;;15.10;46.60;;;;;;5053694;28;20060;-78
2023/05/06 00:13:07;;;;;;;1.90;1.80;;;15.10;46.70;;;;;;5054056;28;20025;-79
2023/05/06 00:15:33;;;;;;;1.90;1.80;;;15.10;46.70;;;;;;5053971;28;20143;-78
2023/05/06 00:18:00;;;;;;;2.25;2.05;;;15.10;46.70;;;;;;5053689;28;20040;-79
2023/05/06 00:20:26;;;;;;;3.00;2.03;;;15.00;46.70;;;;;;5053680;28;20104;-78
2023/05/06 00:22:52;;;;;;;2.28;2.08;;;14.90;46.80;;;;;;5053683;28;20021;-79
2023/05/06 00:25:18;;;;;;;2.65;2.00;;;14.90;47.00;;;;;;5053509;28;20036;-78
2023/05/06 00:27:44;;;;;;;3.42;2.25;;;14.80;47.30;;;;;;5053718;28;20140;-78
2023/05/06 00:30:10;;;;;;;2.58;2.10;;;14.70;47.40;;;;;;5053550;28;20123;-78
2023/05/06 00:32:36;;;;;;;2.20;2.00;;;14.60;47.60;;;;;;5053078;28;20025;-78
2023/05/06 00:35:02;;;;;;;2.38;2.17;;;14.50;47.70;;;;;;5053841;28;20033;-78
2023/05/06 00:37:28;;;;;;;2.30;1.90;;;14.40;48.10;;;;;;5053308;28;20156;-79
2023/05/06 00:39:54;;;;;;;2.40;2.20;;;14.30;48.10;;;;;;5053507;28;20025;-79
2023/05/06 00:42:22;;;;;;;3.58;2.40;;;14.20;48.30;;;;;;5053620;28;20032;-79
2023/05/06 00:44:49;;;;;;;2.30;2.10;;;14.10;48.30;;;;;;5053217;28;20028;-78
2023/05/06 00:47:16;;;;;;;3.60;2.45;;;14.10;48.60;;;;;;5053888;28;20040;-79
2023/05/06 00:49:41;;;;;;;4.10;2.85;;;14.00;48.50;;;;;;5053532;28;20060;-79
2023/05/06 00:52:07;;;;;;;3.63;2.45;;;14.00;48.80;;;;;;5051987;28;20541;-79
2023/05/06 00:54:34;;;;;;;3.22;2.60;;;14.00;48.70;;;;;;5052866;28;20029;-79
2023/05/06 00:57:01;;;;;;;3.15;2.45;;;13.90;48.70;;;;;;5052897;28;20478;-79
2023/05/06 00:59:27;;;;;;;4.00;2.60;;;13.80;49.00;;;;;;5052803;28;20036;-79
2023/05/06 01:01:53;;;;;;;2.35;2.15;;;13.80;49.00;;;;;;5052695;28;20056;-79
2023/05/06 01:04:20;;;;;;;3.15;2.30;;;13.80;49.10;;;;;;5052954;28;20084;-79
2023/05/06 01:06:57;;;;;;;3.95;2.22;;;13.70;49.10;;;;;;5053328;28;20360;-78
2023/05/06 01:09:45;;;;;;;2.63;2.35;;;13.80;49.30;;;;;;5053801;28;20341;-79
2023/05/06 01:12:38;;;;;;;2.85;2.20;;;13.70;49.40;;;;;;5057941;28;20060;-78
2023/05/06 01:15:24;;;;;;;2.50;2.30;;;13.70;49.40;;;;;;5058179;28;20043;-79
2023/05/06 01:17:52;;;;;;;2.33;2.10;;;13.60;49.80;;;;;;5051980;28;20473;-79
2023/05/06 01:20:20;;;;;;;2.33;2.13;;;13.50;49.60;;;;;;5052913;28;20052;-79
2023/05/06 01:22:47;;;;;;;2.60;2.40;;;13.50;49.80;;;;;;5053426;28;20021;-79
2023/05/06 01:25:20;;;;;;;2.40;2.20;;;13.40;50.10;;;;;;5053035;28;20046;-79
2023/05/06 01:27:46;;;;;;;4.40;2.50;;;13.30;50.50;;;;;;5052945;28;20032;-79
2023/05/06 01:30:14;;;;;;;2.50;2.30;;;13.20;50.70;;;;;;5052871;28;20471;-78
2023/05/06 01:33:02;;;;;;;2.53;2.20;;;13.10;51.10;;;;;;5052871;28;20071;-79
2023/05/06 01:35:30;;;;;;;2.75;2.30;;;13.00;51.40;;;;;;5052677;28;20025;-79
2023/05/06 01:38:12;;;;;;;2.53;2.30;;;13.00;51.70;;;;;;5052960;28;20021;-79
2023/05/06 01:40:40;;;;;;;2.78;2.20;;;12.90;52.30;;;;;;5052924;28;20482;-79
2023/05/06 01:43:07;;;;;;;3.50;2.30;;;12.80;52.30;;;;;;5053418;28;20364;-79
2023/05/06 01:45:35;;;;;;;2.05;1.95;;;12.80;52.50;;;;;;5056908;28;20451;-79
2023/05/06 01:48:01;;;;;;;2.38;2.17;;;12.80;52.70;;;;;;5056818;28;20082;-79
2023/05/06 01:50:27;;;;;;;2.42;2.22;;;12.70;52.80;;;;;;5056001;28;20112;-79
2023/05/06 01:53:02;;;;;;;5.80;2.10;;;12.70;52.90;;;;;;5056387;28;20496;-79
2023/05/06 01:55:28;;;;;;;2.50;2.10;;;12.70;53.00;;;;;;5055443;28;20386;-79
2023/05/06 01:57:56;;;;;;;2.95;2.08;;;12.60;53.00;;;;;;5056742;28;20078;-79
2023/05/06 02:00:23;;;;;;;3.20;2.13;;;12.60;53.30;;;;;;5056532;28;20387;-79
2023/05/06 02:02:49;;;;;;;3.03;2.55;;;12.50;53.40;;;;;;5054726;28;20044;-78
2023/05/06 02:05:15;;;;;;;2.40;2.20;;;12.50;53.90;;;;;;5055865;28;20032;-77
2023/05/06 02:07:41;;;;;;;3.85;2.60;;;12.40;54.10;;;;;;5056506;28;20379;-77
2023/05/06 02:10:07;;;;;;;2.30;2.10;;;12.30;54.50;;;;;;5056451;28;20032;-77
2023/05/06 02:12:33;;;;;;;2.42;2.22;;;12.20;54.50;;;;;;5056618;28;20025;-77
2023/05/06 02:14:58;;;;;;;2.10;2.00;;;12.30;54.70;;;;;;5056129;28;20024;-77
2023/05/06 02:17:24;;;;;;;2.25;2.05;;;12.20;54.80;;;;;;5056070;28;20021;-77
2023/05/06 02:19:50;;;;;;;2.33;2.13;;;12.20;54.80;;;;;;5055864;28;20033;-78
2023/05/06 02:22:15;;;;;;;2.38;1.90;;;12.20;55.00;;;;;;5056545;28;20027;-78
2023/05/06 02:24:41;;;;;;;2.00;1.88;;;12.10;55.00;;;;;;5055442;28;20433;-78
2023/05/06 02:27:07;;;;;;;2.17;1.98;;;12.10;55.20;;;;;;5055029;28;20455;-78
2023/05/06 02:29:32;;;;;;;2.63;2.00;;;12.10;55.30;;;;;;5054891;28;20041;-79
2023/05/06 02:31:58;;;;;;;1.95;1.85;;;12.10;55.40;;;;;;5055003;28;20163;-79
2023/05/06 02:34:24;;;;;;;2.28;2.00;;;12.10;55.50;;;;;;5055288;28;20104;-78
2023/05/06 02:36:49;;;;;;;2.67;2.00;;;12.10;55.40;;;;;;5055846;28;20055;-78
2023/05/06 02:39:15;;;;;;;2.00;1.90;;;12.10;55.80;;;;;;5055792;28;20052;-78
2023/05/06 02:41:41;;;;;;;2.05;1.95;;;12.10;55.60;;;;;;5055962;28;20029;-78
2023/05/06 02:44:06;;;;;;;2.13;1.92;;;12.10;55.60;;;;;;5055643;28;20515;-78
2023/05/06 02:46:33;;;;;;;2.03;1.85;;;12.00;55.60;;;;;;5055550;28;20025;-78
2023/05/06 02:49:00;;;;;;;1.80;1.70;;;12.00;55.80;;;;;;5056908;28;20025;-78
2023/05/06 02:51:25;;;;;;;2.10;1.85;;;11.90;56.10;;;;;;5067759;28;20037;-78
2023/05/06 02:53:51;;;;;;;1.88;1.77;;;11.80;56.30;;;;;;5054865;28;20032;-77
2023/05/06 02:56:16;;;;;;;2.10;2.00;;;11.80;56.50;;;;;;5055272;28;20383;-78
2023/05/06 02:58:42;;;;;;;5.10;2.13;;;11.80;56.60;;;;;;5055419;28;20029;-77
2023/05/06 03:01:08;;;;;;;2.00;1.90;;;11.70;56.70;;;;;;5055136;28;20037;-78
2023/05/06 03:03:33;;;;;;;1.83;1.73;;;11.70;56.90;;;;;;5054787;28;20104;-77
2023/05/06 03:05:59;;;;;;;2.20;2.00;;;11.60;57.00;;;;;;5053995;28;20491;-77
2023/05/06 03:08:25;;;;;;;1.90;1.80;;;11.60;57.00;;;;;;5055453;28;20395;-77
2023/05/06 03:10:51;;;;;;;2.22;2.00;;;11.60;57.00;;;;;;5055003;28;20048;-77
2023/05/06 03:13:16;;;;;;;1.90;1.80;;;11.60;57.00;;;;;;5055412;28;20032;-77
2023/05/06 03:15:42;;;;;;;2.20;1.50;;;11.60;56.90;;;;;;5055162;28;20025;-77
2023/05/06 03:18:08;;;;;;;1.70;1.60;;;11.60;57.00;;;;;;5054960;28;20036;-76
2023/05/06 03:20:33;;;;;;;1.77;1.67;;;11.60;57.00;;;;;;5055359;28;20025;-78
2023/05/06 03:22:59;;;;;;;1.65;1.55;;;11.60;56.90;;;;;;5055795;28;20029;-78
2023/05/06 03:25:24;;;;;;;1.90;1.80;;;11.70;56.90;;;;;;5054456;28;20410;-77
2023/05/06 03:27:50;;;;;;;1.75;1.65;;;11.70;56.90;;;;;;5054920;28;20033;-77
2023/05/06 03:30:16;;;;;;;1.92;1.80;;;11.70;56.60;;;;;;5054738;28;20037;-77
2023/05/06 03:32:41;;;;;;;3.90;2.25;;;11.70;56.60;;;;;;5054824;28;20029;-77
2023/05/06 03:35:07;;;;;;;1.98;1.88;;;11.60;56.50;;;;;;5054937;28;20527;-77
2023/05/06 03:37:33;;;;;;;1.95;1.80;;;11.60;56.60;;;;;;5055225;28;20024;-78
2023/05/06 03:39:59;;;;;;;1.70;1.60;;;11.60;56.60;;;;;;5054683;28;20024;-78
2023/05/06 03:42:25;;;;;;;1.70;1.60;;;11.60;56.60;;;;;;5054874;28;20040;-78
2023/05/06 03:44:51;;;;;;;1.70;1.60;;;11.60;56.60;;;;;;5053998;28;20441;-78
2023/05/06 03:47:16;;;;;;;1.77;1.67;;;11.60;56.60;;;;;;5054445;28;20039;-77
2023/05/06 03:49:42;;;;;;;1.80;1.70;;;11.70;56.70;;;;;;5054416;28;20115;-77
2023/05/06 03:52:07;;;;;;;1.60;1.45;;;11.70;56.50;;;;;;5054522;28;20455;-78
2023/05/06 03:54:33;;;;;;;2.13;1.60;;;11.80;56.40;;;;;;5054363;28;20033;-77
2023/05/06 03:56:59;;;;;;;2.10;1.80;;;11.80;56.20;;;;;;5052542;28;20041;-77
2023/05/06 03:59:24;;;;;;;1.73;1.63;;;11.80;56.20;;;;;;5054068;28;20029;-77
2023/05/06 04:01:50;;;;;;;1.70;1.60;;;11.80;56.10;;;;;;5039311;28;20526;-78
2023/05/06 04:04:16;;;;;;;1.73;1.63;;;11.80;56.10;;;;;;5034676;28;20029;-78
2023/05/06 04:06:42;;;;;;;1.80;1.70;;;11.80;56.20;;;;;;5034080;28;20026;-78
2023/05/06 04:09:08;;;;;;;1.80;1.70;;;11.70;56.10;;;;;;5034064;28;20021;-77
2023/05/06 04:11:34;;;;;;;2.15;1.90;;;11.70;56.30;;;;;;5032603;28;20040;-78
2023/05/06 04:14:00;;;;;;;1.77;1.67;;;11.70;56.20;;;;;;5034234;28;20033;-78
2023/05/06 04:16:26;;;;;;;1.70;1.60;;;11.70;56.30;;;;;;5039220;28;20532;-78
2023/05/06 04:18:51;;;;;;;1.77;1.58;;;11.70;56.30;;;;;;5046049;28;20083;-78
2023/05/06 04:21:17;;;;;;;1.90;1.70;;;11.70;56.30;;;;;;5041968;28;20100;-78
2023/05/06 04:23:43;;;;;;;1.63;1.55;;;11.70;56.40;;;;;;5043817;28;20100;-77
2023/05/06 04:26:09;;;;;;;1.60;1.50;;;11.70;56.40;;;;;;5044978;28;20032;-78
2023/05/06 04:28:35;;;;;;;1.60;1.50;;;11.60;56.50;;;;;;5050911;28;20106;-79
2023/05/06 04:31:03;;;;;;;1.90;1.80;;;11.60;56.50;;;;;;5043861;28;20029;-78
2023/05/06 04:33:30;;;;;;;1.90;1.80;;;11.60;56.70;;;;;;5042287;28;20112;-78
2023/05/06 04:35:55;;;;;;;2.08;1.98;;;11.60;56.50;;;;;;5042062;28;20036;-78
2023/05/06 04:38:23;;;;;;;1.70;1.60;;;11.60;56.70;;;;;;5044068;28;20028;-78
2023/05/06 04:40:49;;;;;;;1.60;1.50;;;11.60;56.60;;;;;;5041573;28;20032;-78
2023/05/06 04:43:15;;;;;;;1.70;1.60;;;11.60;56.60;;;;;;5042490;28;20029;-78
2023/05/06 04:45:48;;;;;;;1.83;1.73;;;11.60;56.60;;;;;;5043387;28;20032;-77
2023/05/06 04:48:17;;;;;;;1.90;1.80;;;11.70;56.80;;;;;;5042888;28;20014;-77
2023/05/06 04:50:43;;;;;;;1.70;1.60;;;11.70;56.90;;;;;;5042326;28;20048;-76
2023/05/06 04:53:09;;;;;;;3.47;1.83;;;11.70;56.80;;;;;;5044293;28;20463;-77
2023/05/06 04:55:35;;;;;;;1.85;1.75;;;11.70;56.90;;;;;;5042750;28;20094;-77
2023/05/06 04:58:01;;;;;;;2.17;1.90;;;11.60;57.00;;;;;;5034615;28;20468;-77
2023/05/06 05:00:26;;;;;;;1.80;1.70;;;11.60;57.20;;;;;;5033782;28;20357;-77
2023/05/06 05:02:52;;;;;;;1.60;1.50;;;11.60;57.90;;;;;;5033327;28;20113;-77
2023/05/06 05:05:18;;;;;;;3.25;1.67;;;11.60;57.40;;;;;;5033742;28;20088;-77
2023/05/06 05:07:44;;;;;;;1.80;1.70;;;11.60;57.30;;;;;;5036753;28;20021;-78
2023/05/06 05:10:10;;;;;;;1.70;1.60;;;11.60;57.70;;;;;;5035865;28;20038;-78
2023/05/06 05:12:35;;;;;;;1.67;1.58;;;11.60;57.40;;;;;;5033670;28;20411;-77
2023/05/06 05:15:01;;;;;;;1.92;1.80;;;11.60;57.60;;;;;;5033201;28;20356;-78
2023/05/06 05:17:27;;;;;;;2.00;1.90;;;11.70;57.50;;;;;;5033503;28;20051;-79
2023/05/06 05:19:53;;;;;;;1.80;1.70;;;11.70;57.50;;;;;;5035896;28;20055;-77
2023/05/06 05:22:19;;;;;;;1.70;1.60;;;11.70;57.60;;;;;;5037792;28;20467;-77
2023/05/06 05:24:45;;;;;;;1.88;1.77;;;11.70;57.60;;;;;;5037139;28;20036;-78
2023/05/06 05:27:10;;;;;;;2.00;1.80;;;11.70;57.50;;;;;;5037278;28;20083;-77
2023/05/06 05:29:36;;;;;;;1.88;1.77;;;11.60;57.50;;;;;;5037577;28;20480;-81
2023/05/06 05:32:02;;;;;;;2.03;1.65;;;11.70;57.70;;;;;;5037154;28;20033;-76
2023/05/06 05:34:28;;;;;;;1.67;1.58;;;11.70;57.70;;;;;;5036631;28;20033;-76
2023/05/06 05:36:56;;;;;;;1.80;1.70;;;11.80;57.70;;;;;;5037178;28;20029;-77
2023/05/06 05:39:22;;;;;;;2.05;1.80;;;11.80;57.70;;;;;;5038770;28;20029;-77
2023/05/06 05:41:48;;;;;;;1.83;1.73;;;11.90;57.50;;;;;;5054981;28;20036;-79
2023/05/06 05:44:13;;;;;;;1.70;1.60;;;12.00;57.50;;;;;;5055612;28;20569;-77
2023/05/06 05:46:39;;;;;;;1.60;1.50;;;12.10;58.00;;;;;;5056026;28;20479;-79
2023/05/06 05:49:05;;;;;;;1.80;1.70;;;12.20;57.90;;;;;;5055793;28;20033;-82
2023/05/06 05:51:31;;;;;;;3.33;1.60;;;12.40;57.80;;;;;;5055851;28;20029;-81
2023/05/06 05:53:57;;;;;;;1.77;1.67;;;12.50;58.00;;;;;;5054972;28;20033;-81
2023/05/06 05:56:22;;;;;;;2.50;1.67;;;12.60;57.20;;;;;;5055772;28;20087;-81
2023/05/06 05:58:48;;;;;;;1.40;1.38;;;12.80;57.10;;;;;;5055912;28;20442;-80
2023/05/06 06:01:14;;;;;;;1.30;1.30;;;13.00;56.80;;;;;;5056176;28;20043;-79
2023/05/06 06:03:40;;;;;;;3.13;1.50;;;13.10;56.60;;;;;;5071399;28;20025;-82
2023/05/06 06:06:06;;;;;;;1.55;1.45;;;13.30;56.30;;;;;;5056990;28;20364;-81
2023/05/06 06:08:32;;;;;;;1.30;1.27;;;13.50;56.10;;;;;;5055850;28;20108;-82
2023/05/06 06:10:58;;;;;;;1.73;1.60;;;13.60;55.90;;;;;;5055179;28;20028;-80
2023/05/06 06:13:23;;;;;;;1.60;1.50;;;13.80;55.70;;;;;;5054957;28;20364;-80
2023/05/06 06:15:49;;;;;;;1.30;1.30;;;13.90;55.50;;;;;;5048229;28;20033;-82
2023/05/06 06:18:15;;;;;;;1.55;1.45;;;14.00;55.40;;;;;;5039577;28;20068;-83
2023/05/06 06:20:41;;;;;;;2.13;1.38;;;14.10;55.20;;;;;;5034082;28;20037;-82
2023/05/06 06:23:07;;;;;;;1.23;1.23;;;14.20;55.00;;;;;;5034499;28;20032;-82
2023/05/06 06:25:33;;;;;;;1.23;1.20;;;14.30;54.90;;;;;;5034585;28;20022;-81
2023/05/06 06:27:58;;;;;;;1.35;1.30;;;14.30;54.70;;;;;;5036622;28;20037;-81
2023/05/06 06:30:24;;;;;;;1.42;1.35;;;14.40;54.60;;;;;;5049805;28;20045;-82
2023/05/06 06:32:51;;;;;;;1.40;1.20;;;14.40;54.50;;;;;;5043650;28;20107;-79
2023/05/06 06:35:18;;;;;;;1.40;1.30;;;14.50;54.50;;;;;;5053967;28;20115;-78
2023/05/06 06:37:44;;;;;;;1.67;1.58;;;14.50;54.40;;;;;;5038363;28;20033;-83
2023/05/06 06:40:11;;;;;;;1.40;1.30;;;14.50;54.30;;;;;;5043423;28;20051;-76
2023/05/06 06:42:37;;;;;;;1.27;1.27;;;14.50;54.20;;;;;;5052370;28;20418;-77
2023/05/06 06:45:03;;;;;;;1.25;1.25;;;14.60;54.30;;;;;;5053928;28;20088;-85
2023/05/06 06:47:28;;;;;;;1.50;1.40;;;14.60;54.10;;;;;;5054265;28;20459;-82
2023/05/06 06:49:54;;;;;;;1.52;1.42;;;14.70;54.10;;;;;;5038620;28;20095;-78
2023/05/06 06:52:20;;;;;;;1.60;1.50;;;14.80;54.00;;;;;;5034414;28;20069;-80
2023/05/06 06:54:45;;;;;;;1.30;1.20;;;14.90;53.80;;;;;;5034032;28;20032;-83
2023/05/06 06:57:11;;;;;;;1.42;1.33;;;14.90;53.70;;;;;;5032837;28;20037;-81
2023/05/06 06:59:37;;;;;;;1.58;1.48;;;15.00;53.50;;;;;;5034573;28;20059;-80
2023/05/06 07:02:02;;;;;;;1.05;1.05;;;15.00;53.40;;;;;;5039641;28;20052;-80
2023/05/06 07:04:28;;;;;;;1.15;1.08;;;15.10;53.30;;;;;;5053828;28;20056;-80
2023/05/06 07:06:54;;;;;;;1.45;1.35;;;15.10;53.20;;;;;;5052960;28;20092;-88
2023/05/06 07:09:19;;;;;;;2.20;1.60;;;15.10;53.20;;;;;;5049308;28;20112;-81
2023/05/06 07:11:45;;;;;;;1.52;1.42;;;15.10;53.20;;;;;;5036117;28;20037;-79
2023/05/06 07:14:12;;;;;;;1.40;1.30;;;15.10;53.20;;;;;;5034497;28;20518;-78
2023/05/06 07:16:38;;;;;;;1.50;1.40;;;15.10;53.10;;;;;;5039617;28;20021;-84
2023/05/06 07:19:03;;;;;;;1.52;1.42;;;15.20;53.20;;;;;;5034642;28;20495;-83
2023/05/06 07:21:31;;;;;;;1.30;1.20;;;15.20;53.00;;;;;;5034256;28;20037;-82
2023/05/06 07:23:57;;;;;;;1.23;1.23;;;15.20;53.40;;;;;;5041810;28;20108;-85
2023/05/06 07:26:23;;;;;;;1.13;1.13;;;15.20;52.70;;;;;;5054604;28;20029;-81
2023/05/06 07:28:49;;;;;;;3.22;1.48;;;15.30;52.60;;;;;;5053897;28;20053;-82
2023/05/06 07:31:15;;;;;;;1.25;1.20;;;15.30;52.60;;;;;;5041548;28;20507;-79
2023/05/06 07:33:41;;;;;;;1.30;1.20;;;15.30;52.60;;;;;;5041593;28;20040;-75
2023/05/06 07:36:07;;;;;;;1.60;1.50;;;15.30;52.70;;;;;;5043792;28;20100;-78
2023/05/06 07:38:33;;;;;;;1.55;1.45;;;15.30;53.00;;;;;;5042833;28;20056;-78
2023/05/06 07:40:58;;;;;;;2.47;1.60;;;15.30;53.40;;;;;;5038813;28;20110;-81
2023/05/06 07:43:24;;;;;;;1.50;1.40;;;15.30;53.20;;;;;;5033872;28;20033;-79
2023/05/06 07:45:49;;;;;;;1.52;1.40;;;15.20;53.00;;;;;;5038351;28;20022;-80
2023/05/06 07:48:15;;;;;;;1.50;1.40;;;15.20;52.90;;;;;;5032634;28;20037;-87
2023/05/06 07:50:41;;;;;;;2.40;1.60;;;15.20;52.80;;;;;;5034988;28;20036;-84
2023/05/06 07:53:06;;;;;;;2.70;2.17;;;15.20;52.80;;;;;;5041254;28;20088;-76
2023/05/06 07:55:32;;;;;;;1.48;1.30;;;15.20;52.80;;;;;;5035398;28;20037;-76
2023/05/06 07:57:58;;;;;;;1.85;1.42;;;15.10;52.60;;;;;;5033451;28;20079;-77
2023/05/06 08:00:23;;;;;;;1.63;1.50;;;15.10;52.50;;;;;;5033131;28;20059;-76
2023/05/06 08:02:49;;;;;;;1.40;1.30;;;15.10;52.50;;;;;;5034799;28;20040;-83
2023/05/06 08:05:16;;;;;;;1.60;1.50;;;15.10;52.50;;;;;;5032839;28;20459;-80
2023/05/06 08:07:42;;;;;;;1.58;1.33;;;15.10;52.50;;;;;;5047201;28;20450;-77
2023/05/06 08:10:09;;;;;;;2.95;1.40;;;15.00;52.30;;;;;;5040800;28;20464;-77
2023/05/06 08:12:36;;;;;;;1.35;1.27;;;15.00;52.30;;;;;;5041978;28;20446;-77
2023/05/06 08:15:02;;;;;;;2.03;1.40;;;15.10;52.20;;;;;;5042077;28;20067;-77
2023/05/06 08:17:31;;;;;;;1.40;1.30;;;15.10;52.10;;;;;;5043405;28;20034;-83
2023/05/06 08:19:56;;;;;;;2.00;1.80;;;15.00;51.80;;;;;;5042039;28;20025;-84
2023/05/06 08:22:22;;;;;;;2.45;1.92;;;15.00;51.60;;;;;;5041053;28;20032;-78
2023/05/06 08:24:48;;;;;;;1.75;1.65;;;15.00;51.60;;;;;;5050095;28;20063;-76
2023/05/06 08:27:13;;;;;;;1.88;1.70;;;15.00;51.40;;;;;;5052271;28;20021;-77
2023/05/06 08:29:39;;;;;;;1.70;1.60;;;15.00;51.30;;;;;;5052193;28;20052;-77
2023/05/06 08:32:05;;;;;;;2.03;1.45;;;15.10;50.90;;;;;;5053828;28;20036;-79
2023/05/06 08:34:31;;;;;;;1.35;1.30;;;15.10;50.80;;;;;;5053130;28;20597;-81
2023/05/06 08:36:56;;;;;;;1.40;1.30;;;15.10;50.50;;;;;;5053362;28;20104;-77
2023/05/06 08:39:22;;;;;;;1.50;1.40;;;15.10;50.60;;;;;;5053985;28;20032;-77
2023/05/06 08:41:51;;;;;;;1.33;1.23;;;15.10;50.20;;;;;;5053450;28;20040;-78
2023/05/06 08:44:21;;;;;;;2.53;1.50;;;15.10;50.00;;;;;;5053580;28;20025;-77
2023/05/06 08:46:47;;;;;;;1.40;1.30;;;15.10;49.80;;;;;;5053543;28;20437;-82
2023/05/06 08:49:13;;;;;;;1.40;1.30;;;15.20;49.40;;;;;;5053422;28;20111;-83
2023/05/06 08:51:42;;;;;;;1.85;1.38;;;15.20;49.10;;;;;;5053259;28;20119;-78
2023/05/06 08:54:10;;;;;;;2.80;1.50;;;15.20;49.10;;;;;;5053143;28;20052;-78
2023/05/06 08:56:38;;;;;;;1.40;1.30;;;15.20;48.80;;;;;;5053506;28;20036;-77
2023/05/06 08:59:07;;;;;;;1.65;1.55;;;15.30;48.70;;;;;;5053605;28;20025;-76
2023/05/06 09:01:34;;;;;;;1.33;1.23;;;15.30;48.50;;;;;;5053278;28;20028;-82
2023/05/06 09:04:02;;;;;;;1.33;1.20;;;15.30;48.00;;;;;;5053089;28;20025;-78
2023/05/06 09:06:28;;;;;;;1.27;1.20;;;15.30;47.90;;;;;;5053487;28;20372;-78
2023/05/06 09:08:54;;;;;;;1.40;1.20;;;15.30;47.70;;;;;;5053582;28;20021;-78
2023/05/06 09:11:29;;;;;;;1.17;1.17;;;15.40;47.60;;;;;;5053515;28;20360;-75
2023/05/06 09:14:15;;;;;;;1.45;1.35;;;15.40;47.10;;;;;;5051803;28;20486;-82
2023/05/06 09:16:44;;;;;;;1.10;1.10;;;15.40;46.20;;;;;;5053065;28;20025;-77
2023/05/06 09:19:10;;;;;;;1.20;1.10;;;15.40;47.10;;;;;;5053090;28;20135;-77
2023/05/06 09:21:44;;;;;;;1.27;1.20;;;15.50;46.70;;;;;;5053431;28;20033;-78
2023/05/06 09:24:12;;;;;;;1.20;1.20;;;15.50;46.30;;;;;;5053339;28;20039;-82
2023/05/06 09:26:39;;;;;;;1.48;1.38;;;15.50;46.20;;;;;;5053112;28;20074;-78
2023/05/06 09:29:05;;;;;;;1.92;1.30;;;15.60;46.10;;;;;;5053326;28;20061;-77
2023/05/06 09:31:31;;;;;;;1.30;1.20;;;15.60;46.00;;;;;;5053057;28;20036;-77
2023/05/06 09:33:59;;;;;;;1.17;1.17;;;15.60;45.60;;;;;;5052891;28;20147;-77
2023/05/06 09:36:26;;;;;;;2.63;1.25;;;15.70;45.60;;;;;;5053091;28;20025;-83
2023/05/06 09:38:54;;;;;;;1.95;1.45;;;15.60;44.90;;;;;;5053082;28;20036;-77
2023/05/06 09:41:21;;;;;;;1.50;1.40;;;15.70;44.20;;;;;;5053221;28;20033;-76
2023/05/06 09:43:49;;;;;;;2.75;1.38;;;15.60;44.60;;;;;;5051130;28;20029;-76
2023/05/06 09:46:16;;;;;;;3.60;1.35;;;15.70;44.60;;;;;;5053045;28;20379;-75
2023/05/06 09:48:42;;;;;;;1.95;1.40;;;15.70;43.70;;;;;;5052715;28;20025;-81
2023/05/06 09:51:07;;;;;;;1.40;1.30;;;15.70;44.10;;;;;;5052851;28;20021;-83
2023/05/06 09:53:37;;;;;;;1.20;1.20;;;15.70;43.90;;;;;;5053040;28;20075;-77
2023/05/06 09:56:07;;;;;;;1.08;1.02;;;15.80;43.60;;;;;;5052681;28;20056;-78
2023/05/06 09:58:34;;;;;;;1.42;1.30;;;15.80;43.20;;;;;;5052939;28;20395;-77
2023/05/06 10:01:02;;;;;;;2.35;1.30;;;15.80;43.20;;;;;;5052672;28;20032;-76
2023/05/06 10:03:29;;;;;;;1.73;1.48;;;15.70;42.40;;;;;;5052736;28;20021;-82
2023/05/06 10:05:56;;;;;;;5.25;1.40;;;15.80;42.30;;;;;;5054137;28;20036;-77
2023/05/06 10:08:25;;;;;;;1.42;1.33;;;15.80;42.70;;;;;;5056300;28;20375;-77
2023/05/06 10:10:52;;;;;;;1.40;1.30;;;15.80;42.70;;;;;;5056189;28;20040;-77
2023/05/06 10:13:20;;;;;;;1.40;1.30;;;15.90;42.40;;;;;;5056666;28;20029;-76
2023/05/06 10:15:47;;;;;;;1.52;1.42;;;15.90;42.60;;;;;;5056681;28;20065;-82
2023/05/06 10:18:20;;;;;;;1.90;1.40;;;15.90;42.30;;;;;;5056052;28;20033;-81
2023/05/06 10:20:48;;;;;;;1.35;1.25;;;15.90;42.30;;;;;;5056087;28;20025;-77
2023/05/06 10:23:51;;;;;;;1.05;1.05;;;16.00;42.30;;;;;;5055783;28;20029;-77
2023/05/06 10:26:18;;;;;;;1.02;1.02;;;16.00;40.90;;;;;;5056132;28;20032;-77
2023/05/06 10:28:48;;;;;;;3.72;1.15;;;16.00;42.10;;;;;;5054257;28;20535;-77
2023/05/06 10:31:14;;;;;;;1.40;1.30;;;16.10;41.70;;;;;;5054502;28;20375;-75
2023/05/06 10:33:47;;;;;;;2.47;1.20;;;16.10;42.00;;;;;;5055733;28;20029;-76
2023/05/06 10:36:20;;;;;;;1.02;1.02;;;16.20;41.80;;;;;;5056060;28;20040;-83
2023/05/06 10:38:53;;;;;;;1.33;1.00;;;16.20;41.70;;;;;;5055516;28;20033;-76
2023/05/06 10:41:21;;;;;;;1.27;1.17;;;16.20;41.60;;;;;;5055778;28;20375;-77
2023/05/06 10:43:48;;;;;;;1.60;1.08;;;16.30;41.20;;;;;;5055494;28;20037;-76
2023/05/06 10:46:16;;;;;;;1.02;1.02;;;16.30;40.80;;;;;;5055141;28;20091;-80
2023/05/06 10:49:01;;;;;;;1.50;1.10;;;16.20;40.70;;;;;;5055630;28;20049;-77
2023/05/06 10:51:27;;;;;;;1.65;1.33;;;16.30;40.00;;;;;;5055298;28;20029;-77
2023/05/06 10:54:05;;;;;;;1.10;1.10;;;16.30;41.20;;;;;;5055389;28;20029;-77
2023/05/06 10:56:32;;;;;;;1.58;1.10;;;16.30;40.20;;;;;;5054159;28;20068;-83
2023/05/06 10:59:08;;;;;;;2.92;1.20;;;16.30;40.70;;;;;;5055361;28;20087;-77
2023/05/06 11:01:35;;;;;;;1.40;1.30;;;16.30;40.20;;;;;;5055129;28;20052;-76
2023/05/06 11:04:18;;;;;;;1.33;1.20;;;16.30;40.70;;;;;;5055118;28;20406;-77
2023/05/06 11:06:46;;;;;;;1.23;1.10;;;16.40;39.90;;;;;;5055046;28;20029;-77
2023/05/06 11:09:26;;;;;;;1.98;1.20;;;16.40;40.40;;;;;;5054831;28;20136;-77
2023/05/06 11:12:06;;;;;;;1.55;1.10;;;16.40;39.90;;;;;;5054924;28;20033;-76
2023/05/06 11:14:36;;;;;;;1.40;1.30;;;16.40;39.90;;;;;;5055061;28;20037;-81
2023/05/06 11:17:27;;;;;;;1.50;1.40;;;16.50;39.80;;;;;;5053194;28;20021;-77
2023/05/06 11:20:20;;;;;;;1.63;1.52;;;16.50;39.70;;;;;;5054865;28;20029;-76
2023/05/06 11:22:45;;;;;;;2.45;1.50;;;16.50;39.50;;;;;;5053755;28;20025;-77
2023/05/06 11:25:11;;;;;;;2.08;1.50;;;16.50;39.80;;;;;;5052947;28;20032;-77
2023/05/06 11:27:37;;;;;;;2.05;1.52;;;16.50;39.80;;;;;;5054469;28;20116;-77
2023/05/06 11:30:13;;;;;;;5.03;1.50;;;16.60;39.50;;;;;;5054234;28;20048;-78
2023/05/06 11:32:41;;;;;;;3.42;1.38;;;16.60;39.20;;;;;;5054412;28;20562;-77
2023/05/06 11:35:07;;;;;;;3.30;1.60;;;16.60;39.30;;;;;;5052973;28;20103;-77
2023/05/06 11:37:33;;;;;;;2.83;1.65;;;16.60;39.30;;;;;;5054313;28;20483;-77
2023/05/06 11:39:59;;;;;;;2.50;1.40;;;16.60;39.30;;;;;;5054379;28;20028;-77
2023/05/06 11:42:30;;;;;;;1.73;1.50;;;16.60;39.00;;;;;;5054117;28;20029;-77
2023/05/06 11:45:01;;;;;;;3.60;1.55;;;16.60;39.20;;;;;;5054174;28;20554;-81
2023/05/06 11:47:26;;;;;;;2.08;1.50;;;16.70;38.70;;;;;;5054360;28;20104;-77
2023/05/06 11:49:55;;;;;;;1.98;1.70;;;16.70;38.70;;;;;;5054052;28;20147;-77
2023/05/06 11:52:21;;;;;;;3.00;1.60;;;16.70;39.00;;;;;;5054161;28;20028;-76
2023/05/06 11:54:46;;;;;;;2.15;1.95;;;16.70;39.00;;;;;;5054250;28;20115;-75
2023/05/06 11:57:12;;;;;;;1.63;1.52;;;16.70;38.80;;;;;;5054226;28;20023;-82
2023/05/06 11:59:39;;;;;;;2.58;1.98;;;16.80;38.90;;;;;;5054126;28;20032;-78
2023/05/06 12:02:07;;;;;;;2.67;1.85;;;16.90;38.80;;;;;;5054029;28;20039;-76
2023/05/06 12:04:44;;;;;;;2.08;1.83;;;16.90;38.80;;;;;;5054199;28;20035;-76
2023/05/06 12:07:11;;;;;;;1.33;1.23;;;16.90;38.60;;;;;;5053824;28;20029;-77
2023/05/06 12:09:40;;;;;;;1.70;1.60;;;17.00;38.60;;;;;;5054165;28;20091;-80
2023/05/06 12:12:07;;;;;;;2.08;1.50;;;17.00;38.50;;;;;;5053753;28;20154;-77
2023/05/06 12:14:38;;;;;;;2.72;1.85;;;17.10;38.50;;;;;;5054123;28;20426;-77
2023/05/06 12:17:04;;;;;;;1.90;1.80;;;17.20;38.30;;;;;;5052576;28;20028;-77
2023/05/06 12:19:30;;;;;;;3.28;1.70;;;17.20;38.30;;;;;;5053871;28;20024;-76
2023/05/06 12:22:16;;;;;;;2.35;1.80;;;17.30;38.20;;;;;;5053698;28;20025;-81
2023/05/06 12:24:42;;;;;;;3.08;1.83;;;17.40;37.30;;;;;;5052543;28;20056;-77
2023/05/06 12:27:08;;;;;;;2.65;1.83;;;17.40;37.80;;;;;;5053597;28;20021;-77
2023/05/06 12:29:34;;;;;;;3.17;1.83;;;17.50;37.80;;;;;;5052569;28;20044;-76
2023/05/06 12:32:10;;;;;;;2.42;1.90;;;17.60;37.80;;;;;;5053494;28;20045;-77
2023/05/06 12:34:40;;;;;;;2.95;1.80;;;17.70;37.50;;;;;;5053952;28;20552;-77
2023/05/06 12:37:07;;;;;;;2.75;2.00;;;17.80;37.70;;;;;;5052143;28;20532;-76
2023/05/06 12:39:37;;;;;;;2.03;1.80;;;17.90;37.50;;;;;;5053517;28;20120;-75
2023/05/06 12:42:03;;;;;;;1.77;1.67;;;18.00;37.00;;;;;;5053441;28;20025;-77
2023/05/06 12:44:39;;;;;;;2.78;1.92;;;18.00;37.20;;;;;;5053467;28;20025;-82
2023/05/06 12:47:17;;;;;;;3.15;1.85;;;18.10;37.20;;;;;;5053271;28;20064;-77
2023/05/06 12:49:54;;;;;;;1.92;1.70;;;18.30;37.00;;;;;;5052473;28;20025;-77